sensor_id;sensor_type;location;lat;lon;timestamp;temperature;humidity
10057;DHT22;5068;51.286;7.518;2023-03-14T00:01:23;9.80;60.60
10057;DHT22;5068;51.286;7.518;2023-03-14T00:02:57;9.80;60.60
10057;DHT22;5068;51.286;7.518;2023-03-14T00:04:30;9.80;60.50
10057;DHT22;5068;51.286;7.518;2023-03-14T00:06:03;9.80;60.50
10057;DHT22;5068;51.286;7.518;2023-03-14T00:07:38;9.80;60.50
10057;DHT22;5068;51.286;7.518;2023-03-14T00:09:12;9.80;60.40
10057;DHT22;5068;51.286;7.518;2023-03-14T00:10:47;9.80;60.50
10057;DHT22;5068;51.286;7.518;2023-03-14T00:12:20;9.80;60.50
10057;DHT22;5068;51.286;7.518;2023-03-14T00:13:53;9.80;60.60
10057;DHT22;5068;51.286;7.518;2023-03-14T00:15:27;9.80;60.50
10057;DHT22;5068;51.286;7.518;2023-03-14T00:17:00;9.80;60.50
10057;DHT22;5068;51.286;7.518;2023-03-14T00:18:33;9.80;60.50
10057;DHT22;5068;51.286;7.518;2023-03-14T00:20:07;9.80;60.50
10057;DHT22;5068;51.286;7.518;2023-03-14T00:21:43;9.80;60.50
10057;DHT22;5068;51.286;7.518;2023-03-14T00:23:16;9.80;60.50
10057;DHT22;5068;51.286;7.518;2023-03-14T00:24:49;9.80;60.50
10057;DHT22;5068;51.286;7.518;2023-03-14T00:26:25;9.80;60.50
10057;DHT22;5068;51.286;7.518;2023-03-14T00:27:58;9.80;60.50
10057;DHT22;5068;51.286;7.518;2023-03-14T00:29:31;9.80;60.50
10057;DHT22;5068;51.286;7.518;2023-03-14T00:31:07;9.80;60.40
10057;DHT22;5068;51.286;7.518;2023-03-14T00:32:41;9.80;60.40
10057;DHT22;5068;51.286;7.518;2023-03-14T00:34:15;9.80;60.40
10057;DHT22;5068;51.286;7.518;2023-03-14T00:35:53;9.80;60.40
10057;DHT22;5068;51.286;7.518;2023-03-14T00:37:27;9.80;60.30
10057;DHT22;5068;51.286;7.518;2023-03-14T00:39:00;9.80;60.30
10057;DHT22;5068;51.286;7.518;2023-03-14T00:40:39;9.80;60.20
10057;DHT22;5068;51.286;7.518;2023-03-14T00:42:14;9.80;60.20
10057;DHT22;5068;51.286;7.518;2023-03-14T00:43:47;9.80;60.20
10057;DHT22;5068;51.286;7.518;2023-03-14T00:45:19;9.80;60.20
10057;DHT22;5068;51.286;7.518;2023-03-14T00:46:53;9.80;60.10
10057;DHT22;5068;51.286;7.518;2023-03-14T00:48:26;9.80;60.10
10057;DHT22;5068;51.286;7.518;2023-03-14T00:50:00;9.80;60.20
10057;DHT22;5068;51.286;7.518;2023-03-14T00:51:33;9.80;60.10
10057;DHT22;5068;51.286;7.518;2023-03-14T00:53:07;9.80;60.20
10057;DHT22;5068;51.286;7.518;2023-03-14T00:54:40;9.80;60.20
10057;DHT22;5068;51.286;7.518;2023-03-14T00:56:14;9.80;60.10
10057;DHT22;5068;51.286;7.518;2023-03-14T00:57:48;9.80;60.20
10057;DHT22;5068;51.286;7.518;2023-03-14T00:59:22;9.80;60.10
10057;DHT22;5068;51.286;7.518;2023-03-14T01:00:55;9.80;60.10
10057;DHT22;5068;51.286;7.518;2023-03-14T01:02:29;9.80;60.20
10057;DHT22;5068;51.286;7.518;2023-03-14T01:04:02;9.80;60.20
10057;DHT22;5068;51.286;7.518;2023-03-14T01:05:37;9.80;60.20
10057;DHT22;5068;51.286;7.518;2023-03-14T01:07:10;9.90;60.20
10057;DHT22;5068;51.286;7.518;2023-03-14T01:08:44;9.90;60.10
10057;DHT22;5068;51.286;7.518;2023-03-14T01:10:18;9.90;60.10
10057;DHT22;5068;51.286;7.518;2023-03-14T01:11:51;9.90;60.10
10057;DHT22;5068;51.286;7.518;2023-03-14T01:13:25;9.90;60.00
10057;DHT22;5068;51.286;7.518;2023-03-14T01:14:59;9.90;60.00
10057;DHT22;5068;51.286;7.518;2023-03-14T01:16:34;9.90;60.00
10057;DHT22;5068;51.286;7.518;2023-03-14T01:18:07;10.00;60.20
10057;DHT22;5068;51.286;7.518;2023-03-14T01:19:41;10.00;60.10
10057;DHT22;5068;51.286;7.518;2023-03-14T01:21:17;10.00;60.20
10057;DHT22;5068;51.286;7.518;2023-03-14T01:22:51;10.00;60.40
10057;DHT22;5068;51.286;7.518;2023-03-14T01:24:25;10.00;60.50
10057;DHT22;5068;51.286;7.518;2023-03-14T01:25:58;10.00;60.60
10057;DHT22;5068;51.286;7.518;2023-03-14T01:27:31;10.00;60.70
10057;DHT22;5068;51.286;7.518;2023-03-14T01:29:06;10.10;60.80
10057;DHT22;5068;51.286;7.518;2023-03-14T01:30:42;10.00;60.70
10057;DHT22;5068;51.286;7.518;2023-03-14T01:32:16;10.10;60.80
10057;DHT22;5068;51.286;7.518;2023-03-14T01:33:50;10.10;60.90
10057;DHT22;5068;51.286;7.518;2023-03-14T01:35:23;10.10;61.00
10057;DHT22;5068;51.286;7.518;2023-03-14T01:36:59;10.10;61.20
10057;DHT22;5068;51.286;7.518;2023-03-14T01:38:33;10.10;61.50
10057;DHT22;5068;51.286;7.518;2023-03-14T01:40:11;10.10;61.80
10057;DHT22;5068;51.286;7.518;2023-03-14T01:41:48;10.10;61.00
10057;DHT22;5068;51.286;7.518;2023-03-14T01:43:21;10.10;59.70
10057;DHT22;5068;51.286;7.518;2023-03-14T01:44:58;10.00;59.00
10057;DHT22;5068;51.286;7.518;2023-03-14T01:46:38;10.00;58.90
10057;DHT22;5068;51.286;7.518;2023-03-14T01:48:12;10.00;59.50
10057;DHT22;5068;51.286;7.518;2023-03-14T01:49:46;9.90;58.80
10057;DHT22;5068;51.286;7.518;2023-03-14T01:51:26;9.80;58.90
10057;DHT22;5068;51.286;7.518;2023-03-14T01:53:05;9.80;59.20
10057;DHT22;5068;51.286;7.518;2023-03-14T01:54:41;9.70;59.20
10057;DHT22;5068;51.286;7.518;2023-03-14T01:56:16;9.70;59.40
10057;DHT22;5068;51.286;7.518;2023-03-14T01:57:52;9.60;59.50
10057;DHT22;5068;51.286;7.518;2023-03-14T01:59:30;9.60;59.90
10057;DHT22;5068;51.286;7.518;2023-03-14T02:01:07;9.50;60.00
10057;DHT22;5068;51.286;7.518;2023-03-14T02:02:45;9.50;60.30
10057;DHT22;5068;51.286;7.518;2023-03-14T02:04:28;9.40;60.30
10057;DHT22;5068;51.286;7.518;2023-03-14T02:06:07;9.40;60.50
10057;DHT22;5068;51.286;7.518;2023-03-14T02:07:47;9.30;60.40
10057;DHT22;5068;51.286;7.518;2023-03-14T02:09:27;9.30;60.50
10057;DHT22;5068;51.286;7.518;2023-03-14T02:11:02;9.20;60.50
10057;DHT22;5068;51.286;7.518;2023-03-14T02:13:02;9.20;60.50
10057;DHT22;5068;51.286;7.518;2023-03-14T02:14:54;9.20;60.60
10057;DHT22;5068;51.286;7.518;2023-03-14T02:16:35;9.10;60.60
10057;DHT22;5068;51.286;7.518;2023-03-14T02:18:39;9.10;60.80
10057;DHT22;5068;51.286;7.518;2023-03-14T02:20:35;9.00;60.90
10057;DHT22;5068;51.286;7.518;2023-03-14T02:22:15;9.10;61.20
10057;DHT22;5068;51.286;7.518;2023-03-14T02:24:08;8.90;61.30
10057;DHT22;5068;51.286;7.518;2023-03-14T02:25:59;8.90;61.50
10057;DHT22;5068;51.286;7.518;2023-03-14T02:27:40;8.80;61.50
10057;DHT22;5068;51.286;7.518;2023-03-14T02:29:13;8.90;61.80
10057;DHT22;5068;51.286;7.518;2023-03-14T02:30:46;8.80;61.80
10057;DHT22;5068;51.286;7.518;2023-03-14T02:32:22;8.80;62.00
10057;DHT22;5068;51.286;7.518;2023-03-14T02:33:58;8.80;62.30
10057;DHT22;5068;51.286;7.518;2023-03-14T02:35:37;8.80;62.60
10057;DHT22;5068;51.286;7.518;2023-03-14T02:37:14;8.80;63.60
10057;DHT22;5068;51.286;7.518;2023-03-14T02:38:55;8.80;62.80
10057;DHT22;5068;51.286;7.518;2023-03-14T02:40:34;8.70;62.70
10057;DHT22;5068;51.286;7.518;2023-03-14T02:42:08;8.70;62.70
10057;DHT22;5068;51.286;7.518;2023-03-14T02:43:42;8.70;62.80
10057;DHT22;5068;51.286;7.518;2023-03-14T02:45:34;8.70;63.00
10057;DHT22;5068;51.286;7.518;2023-03-14T02:47:10;8.70;63.40
10057;DHT22;5068;51.286;7.518;2023-03-14T02:48:46;8.70;63.20
10057;DHT22;5068;51.286;7.518;2023-03-14T02:50:25;8.70;63.40
10057;DHT22;5068;51.286;7.518;2023-03-14T02:52:00;8.60;63.40
10057;DHT22;5068;51.286;7.518;2023-03-14T02:53:35;8.60;63.50
10057;DHT22;5068;51.286;7.518;2023-03-14T02:55:14;8.60;63.70
10057;DHT22;5068;51.286;7.518;2023-03-14T02:56:52;8.60;63.80
10057;DHT22;5068;51.286;7.518;2023-03-14T02:58:27;8.60;63.90
10057;DHT22;5068;51.286;7.518;2023-03-14T03:00:11;8.60;64.00
10057;DHT22;5068;51.286;7.518;2023-03-14T03:01:44;8.60;64.20
10057;DHT22;5068;51.286;7.518;2023-03-14T03:03:18;8.60;64.30
10057;DHT22;5068;51.286;7.518;2023-03-14T03:04:52;8.60;64.30
10057;DHT22;5068;51.286;7.518;2023-03-14T03:06:26;8.60;64.40
10057;DHT22;5068;51.286;7.518;2023-03-14T03:07:59;8.60;64.30
10057;DHT22;5068;51.286;7.518;2023-03-14T03:09:32;8.60;64.30
10057;DHT22;5068;51.286;7.518;2023-03-14T03:11:05;8.70;64.50
10057;DHT22;5068;51.286;7.518;2023-03-14T03:12:39;8.60;64.50
10057;DHT22;5068;51.286;7.518;2023-03-14T03:14:11;8.60;64.60
10057;DHT22;5068;51.286;7.518;2023-03-14T03:15:46;8.60;64.70
10057;DHT22;5068;51.286;7.518;2023-03-14T03:17:19;8.60;64.80
10057;DHT22;5068;51.286;7.518;2023-03-14T03:18:51;8.60;64.80
10057;DHT22;5068;51.286;7.518;2023-03-14T03:20:25;8.60;64.90
10057;DHT22;5068;51.286;7.518;2023-03-14T03:21:58;8.60;65.10
10057;DHT22;5068;51.286;7.518;2023-03-14T03:23:31;8.70;65.00
10057;DHT22;5068;51.286;7.518;2023-03-14T03:25:06;8.60;65.00
10057;DHT22;5068;51.286;7.518;2023-03-14T03:26:41;8.60;65.00
10057;DHT22;5068;51.286;7.518;2023-03-14T03:28:15;8.70;65.00
10057;DHT22;5068;51.286;7.518;2023-03-14T03:29:48;8.70;65.00
10057;DHT22;5068;51.286;7.518;2023-03-14T03:31:23;8.70;65.10
10057;DHT22;5068;51.286;7.518;2023-03-14T03:32:56;8.70;65.10
10057;DHT22;5068;51.286;7.518;2023-03-14T03:34:28;8.70;65.10
10057;DHT22;5068;51.286;7.518;2023-03-14T03:36:02;8.70;65.10
10057;DHT22;5068;51.286;7.518;2023-03-14T03:37:38;8.70;65.20
10057;DHT22;5068;51.286;7.518;2023-03-14T03:39:12;8.70;65.20
10057;DHT22;5068;51.286;7.518;2023-03-14T03:40:45;8.70;65.20
10057;DHT22;5068;51.286;7.518;2023-03-14T03:42:19;8.70;65.30
10057;DHT22;5068;51.286;7.518;2023-03-14T03:43:52;8.70;65.30
10057;DHT22;5068;51.286;7.518;2023-03-14T03:45:26;8.70;65.30
10057;DHT22;5068;51.286;7.518;2023-03-14T03:47:02;8.70;65.30
10057;DHT22;5068;51.286;7.518;2023-03-14T03:48:35;8.70;65.30
10057;DHT22;5068;51.286;7.518;2023-03-14T03:50:10;8.70;65.50
10057;DHT22;5068;51.286;7.518;2023-03-14T03:51:43;8.70;65.00
10057;DHT22;5068;51.286;7.518;2023-03-14T03:53:16;8.70;65.00
10057;DHT22;5068;51.286;7.518;2023-03-14T03:55:05;8.70;65.00
10057;DHT22;5068;51.286;7.518;2023-03-14T03:56:38;8.70;65.00
10057;DHT22;5068;51.286;7.518;2023-03-14T03:58:12;8.70;65.00
10057;DHT22;5068;51.286;7.518;2023-03-14T03:59:45;8.70;65.10
10057;DHT22;5068;51.286;7.518;2023-03-14T04:01:18;8.70;65.10
10057;DHT22;5068;51.286;7.518;2023-03-14T04:02:56;8.70;65.10
10057;DHT22;5068;51.286;7.518;2023-03-14T04:04:29;8.70;65.20
10057;DHT22;5068;51.286;7.518;2023-03-14T04:06:09;8.70;65.20
10057;DHT22;5068;51.286;7.518;2023-03-14T04:07:44;8.70;65.30
10057;DHT22;5068;51.286;7.518;2023-03-14T04:09:21;8.70;65.30
10057;DHT22;5068;51.286;7.518;2023-03-14T04:11:23;8.70;65.40
10057;DHT22;5068;51.286;7.518;2023-03-14T04:13:10;8.70;66.30
10057;DHT22;5068;51.286;7.518;2023-03-14T04:14:45;8.70;65.50
10057;DHT22;5068;51.286;7.518;2023-03-14T04:16:25;8.70;65.50
10057;DHT22;5068;51.286;7.518;2023-03-14T04:18:07;8.70;65.70
10057;DHT22;5068;51.286;7.518;2023-03-14T04:19:40;8.70;65.60
10057;DHT22;5068;51.286;7.518;2023-03-14T04:21:14;8.70;65.60
10057;DHT22;5068;51.286;7.518;2023-03-14T04:22:53;8.70;65.70
10057;DHT22;5068;51.286;7.518;2023-03-14T04:24:26;8.70;65.80
10057;DHT22;5068;51.286;7.518;2023-03-14T04:26:01;8.70;65.70
10057;DHT22;5068;51.286;7.518;2023-03-14T04:27:36;8.70;65.80
10057;DHT22;5068;51.286;7.518;2023-03-14T04:29:15;8.80;65.90
10057;DHT22;5068;51.286;7.518;2023-03-14T04:30:50;8.80;65.90
10057;DHT22;5068;51.286;7.518;2023-03-14T04:32:27;8.80;66.10
10057;DHT22;5068;51.286;7.518;2023-03-14T04:34:03;8.80;65.70
10057;DHT22;5068;51.286;7.518;2023-03-14T04:35:40;8.80;65.80
10057;DHT22;5068;51.286;7.518;2023-03-14T04:37:16;8.80;65.80
10057;DHT22;5068;51.286;7.518;2023-03-14T04:38:49;8.80;65.80
10057;DHT22;5068;51.286;7.518;2023-03-14T04:40:25;8.80;65.90
10057;DHT22;5068;51.286;7.518;2023-03-14T04:42:03;8.80;65.90
10057;DHT22;5068;51.286;7.518;2023-03-14T04:43:37;8.70;65.70
10057;DHT22;5068;51.286;7.518;2023-03-14T04:45:13;8.80;65.90
10057;DHT22;5068;51.286;7.518;2023-03-14T04:46:47;8.80;65.90
10057;DHT22;5068;51.286;7.518;2023-03-14T04:48:20;8.80;66.00
10057;DHT22;5068;51.286;7.518;2023-03-14T04:49:55;8.80;66.20
10057;DHT22;5068;51.286;7.518;2023-03-14T04:51:29;8.80;66.10
10057;DHT22;5068;51.286;7.518;2023-03-14T04:53:03;8.80;66.90
10057;DHT22;5068;51.286;7.518;2023-03-14T04:54:37;8.80;66.20
10057;DHT22;5068;51.286;7.518;2023-03-14T04:56:10;8.80;66.20
10057;DHT22;5068;51.286;7.518;2023-03-14T04:57:46;8.80;66.20
10057;DHT22;5068;51.286;7.518;2023-03-14T04:59:19;8.80;66.20
10057;DHT22;5068;51.286;7.518;2023-03-14T05:00:54;8.80;66.30
10057;DHT22;5068;51.286;7.518;2023-03-14T05:02:46;8.80;66.30
10057;DHT22;5068;51.286;7.518;2023-03-14T05:04:29;8.80;66.30
10057;DHT22;5068;51.286;7.518;2023-03-14T05:06:24;8.80;66.30
10057;DHT22;5068;51.286;7.518;2023-03-14T05:08:12;8.70;66.20
10057;DHT22;5068;51.286;7.518;2023-03-14T05:10:04;8.70;66.20
10057;DHT22;5068;51.286;7.518;2023-03-14T05:11:56;8.80;66.70
10057;DHT22;5068;51.286;7.518;2023-03-14T05:13:48;8.70;66.00
10057;DHT22;5068;51.286;7.518;2023-03-14T05:15:36;8.70;66.10
10057;DHT22;5068;51.286;7.518;2023-03-14T05:17:19;8.70;66.00
10057;DHT22;5068;51.286;7.518;2023-03-14T05:19:09;8.70;66.20
10057;DHT22;5068;51.286;7.518;2023-03-14T05:20:54;8.70;66.30
10057;DHT22;5068;51.286;7.518;2023-03-14T05:22:52;8.70;66.30
10057;DHT22;5068;51.286;7.518;2023-03-14T05:24:54;8.70;66.40
10057;DHT22;5068;51.286;7.518;2023-03-14T05:26:43;8.70;66.70
10057;DHT22;5068;51.286;7.518;2023-03-14T05:28:34;8.70;66.20
10057;DHT22;5068;51.286;7.518;2023-03-14T05:30:17;8.70;66.20
10057;DHT22;5068;51.286;7.518;2023-03-14T05:32:09;8.70;66.30
10057;DHT22;5068;51.286;7.518;2023-03-14T05:34:00;8.70;66.40
10057;DHT22;5068;51.286;7.518;2023-03-14T05:35:46;8.60;66.40
10057;DHT22;5068;51.286;7.518;2023-03-14T05:37:38;8.60;66.40
10057;DHT22;5068;51.286;7.518;2023-03-14T05:39:22;8.60;66.60
10057;DHT22;5068;51.286;7.518;2023-03-14T05:41:17;8.60;66.70
10057;DHT22;5068;51.286;7.518;2023-03-14T05:43:19;8.60;66.70
10057;DHT22;5068;51.286;7.518;2023-03-14T05:45:08;8.60;67.50
10057;DHT22;5068;51.286;7.518;2023-03-14T05:47:04;8.60;66.70
10057;DHT22;5068;51.286;7.518;2023-03-14T05:48:56;8.70;66.80
10057;DHT22;5068;51.286;7.518;2023-03-14T05:50:55;8.60;66.70
10057;DHT22;5068;51.286;7.518;2023-03-14T05:52:39;8.60;66.80
10057;DHT22;5068;51.286;7.518;2023-03-14T05:54:43;8.70;66.80
10057;DHT22;5068;51.286;7.518;2023-03-14T05:56:42;8.60;66.80
10057;DHT22;5068;51.286;7.518;2023-03-14T05:58:15;8.60;66.80
10057;DHT22;5068;51.286;7.518;2023-03-14T06:00:14;8.60;66.90
10057;DHT22;5068;51.286;7.518;2023-03-14T06:02:00;8.60;67.00
10057;DHT22;5068;51.286;7.518;2023-03-14T06:03:42;8.70;67.20
10057;DHT22;5068;51.286;7.518;2023-03-14T06:05:16;8.60;67.10
10057;DHT22;5068;51.286;7.518;2023-03-14T06:06:49;8.70;67.30
10057;DHT22;5068;51.286;7.518;2023-03-14T06:08:23;8.70;67.40
10057;DHT22;5068;51.286;7.518;2023-03-14T06:09:57;8.70;67.40
10057;DHT22;5068;51.286;7.518;2023-03-14T06:11:31;8.70;67.50
10057;DHT22;5068;51.286;7.518;2023-03-14T06:13:04;8.70;67.40
10057;DHT22;5068;51.286;7.518;2023-03-14T06:14:38;8.70;67.50
10057;DHT22;5068;51.286;7.518;2023-03-14T06:16:12;8.70;67.50
10057;DHT22;5068;51.286;7.518;2023-03-14T06:17:46;8.70;67.50
10057;DHT22;5068;51.286;7.518;2023-03-14T06:19:20;8.70;67.50
10057;DHT22;5068;51.286;7.518;2023-03-14T06:20:54;8.70;67.80
10057;DHT22;5068;51.286;7.518;2023-03-14T06:22:30;8.70;67.50
10057;DHT22;5068;51.286;7.518;2023-03-14T06:24:04;8.70;67.40
10057;DHT22;5068;51.286;7.518;2023-03-14T06:25:45;8.70;67.40
10057;DHT22;5068;51.286;7.518;2023-03-14T06:27:19;8.70;67.50
10057;DHT22;5068;51.286;7.518;2023-03-14T06:28:55;8.70;67.40
10057;DHT22;5068;51.286;7.518;2023-03-14T06:30:32;8.70;67.50
10057;DHT22;5068;51.286;7.518;2023-03-14T06:32:06;8.70;67.60
10057;DHT22;5068;51.286;7.518;2023-03-14T06:33:41;8.70;67.50
10057;DHT22;5068;51.286;7.518;2023-03-14T06:35:14;8.80;67.80
10057;DHT22;5068;51.286;7.518;2023-03-14T06:36:49;8.70;67.30
10057;DHT22;5068;51.286;7.518;2023-03-14T06:38:22;8.70;67.30
10057;DHT22;5068;51.286;7.518;2023-03-14T06:39:58;8.70;67.20
10057;DHT22;5068;51.286;7.518;2023-03-14T06:41:51;8.70;67.20
10057;DHT22;5068;51.286;7.518;2023-03-14T06:43:24;8.70;67.20
10057;DHT22;5068;51.286;7.518;2023-03-14T06:44:57;8.70;67.20
10057;DHT22;5068;51.286;7.518;2023-03-14T06:46:31;8.70;67.20
10057;DHT22;5068;51.286;7.518;2023-03-14T06:48:05;8.70;67.20
10057;DHT22;5068;51.286;7.518;2023-03-14T06:49:43;8.70;67.30
10057;DHT22;5068;51.286;7.518;2023-03-14T06:51:17;8.70;67.30
10057;DHT22;5068;51.286;7.518;2023-03-14T06:52:52;8.70;67.30
10057;DHT22;5068;51.286;7.518;2023-03-14T06:54:29;8.70;67.30
10057;DHT22;5068;51.286;7.518;2023-03-14T06:56:02;8.70;67.30
10057;DHT22;5068;51.286;7.518;2023-03-14T06:57:39;8.70;67.30
10057;DHT22;5068;51.286;7.518;2023-03-14T06:59:12;8.70;67.30
10057;DHT22;5068;51.286;7.518;2023-03-14T07:00:46;8.70;67.20
10057;DHT22;5068;51.286;7.518;2023-03-14T07:02:25;8.70;67.20
10057;DHT22;5068;51.286;7.518;2023-03-14T07:04:22;8.70;67.20
10057;DHT22;5068;51.286;7.518;2023-03-14T07:05:56;8.70;67.30
10057;DHT22;5068;51.286;7.518;2023-03-14T07:07:30;8.70;67.30
10057;DHT22;5068;51.286;7.518;2023-03-14T07:09:03;8.70;67.50
10057;DHT22;5068;51.286;7.518;2023-03-14T07:10:38;8.70;67.50
10057;DHT22;5068;51.286;7.518;2023-03-14T07:12:12;8.70;67.50
10057;DHT22;5068;51.286;7.518;2023-03-14T07:13:47;8.80;67.60
10057;DHT22;5068;51.286;7.518;2023-03-14T07:15:20;8.80;67.60
10057;DHT22;5068;51.286;7.518;2023-03-14T07:16:57;8.80;67.60
10057;DHT22;5068;51.286;7.518;2023-03-14T07:18:30;8.80;67.60
10057;DHT22;5068;51.286;7.518;2023-03-14T07:20:08;8.80;67.60
10057;DHT22;5068;51.286;7.518;2023-03-14T07:21:42;8.80;67.70
10057;DHT22;5068;51.286;7.518;2023-03-14T07:23:18;8.80;67.60
10057;DHT22;5068;51.286;7.518;2023-03-14T07:24:53;8.80;67.70
10057;DHT22;5068;51.286;7.518;2023-03-14T07:26:28;8.80;67.70
10057;DHT22;5068;51.286;7.518;2023-03-14T07:28:01;8.80;67.80
10057;DHT22;5068;51.286;7.518;2023-03-14T07:29:36;8.80;67.90
10057;DHT22;5068;51.286;7.518;2023-03-14T07:31:09;8.80;67.90
10057;DHT22;5068;51.286;7.518;2023-03-14T07:32:43;8.80;67.90
10057;DHT22;5068;51.286;7.518;2023-03-14T07:34:17;8.80;68.00
10057;DHT22;5068;51.286;7.518;2023-03-14T07:35:51;8.80;68.00
10057;DHT22;5068;51.286;7.518;2023-03-14T07:37:24;8.80;68.10
10057;DHT22;5068;51.286;7.518;2023-03-14T07:38:57;8.80;68.10
10057;DHT22;5068;51.286;7.518;2023-03-14T07:40:39;8.90;68.20
10057;DHT22;5068;51.286;7.518;2023-03-14T07:42:13;8.90;68.20
10057;DHT22;5068;51.286;7.518;2023-03-14T07:43:47;8.90;68.20
10057;DHT22;5068;51.286;7.518;2023-03-14T07:45:21;8.90;68.20
10057;DHT22;5068;51.286;7.518;2023-03-14T07:46:55;8.90;68.20
10057;DHT22;5068;51.286;7.518;2023-03-14T07:48:29;8.90;68.10
10057;DHT22;5068;51.286;7.518;2023-03-14T07:50:02;8.90;68.10
10057;DHT22;5068;51.286;7.518;2023-03-14T07:51:37;8.90;68.10
10057;DHT22;5068;51.286;7.518;2023-03-14T07:53:10;8.90;68.10
10057;DHT22;5068;51.286;7.518;2023-03-14T07:54:43;8.90;68.10
10057;DHT22;5068;51.286;7.518;2023-03-14T07:56:16;8.90;68.20
10057;DHT22;5068;51.286;7.518;2023-03-14T07:57:50;8.90;68.20
10057;DHT22;5068;51.286;7.518;2023-03-14T07:59:23;9.00;68.20
10057;DHT22;5068;51.286;7.518;2023-03-14T08:00:58;9.00;68.20
10057;DHT22;5068;51.286;7.518;2023-03-14T08:02:32;9.00;68.30
10057;DHT22;5068;51.286;7.518;2023-03-14T08:04:05;9.00;68.10
10057;DHT22;5068;51.286;7.518;2023-03-14T08:05:38;9.00;68.20
10057;DHT22;5068;51.286;7.518;2023-03-14T08:07:12;9.00;68.20
10057;DHT22;5068;51.286;7.518;2023-03-14T08:08:45;9.00;68.20
10057;DHT22;5068;51.286;7.518;2023-03-14T08:10:19;9.00;68.20
10057;DHT22;5068;51.286;7.518;2023-03-14T08:11:55;9.00;68.30
10057;DHT22;5068;51.286;7.518;2023-03-14T08:13:29;9.00;68.30
10057;DHT22;5068;51.286;7.518;2023-03-14T08:15:03;9.00;68.40
10057;DHT22;5068;51.286;7.518;2023-03-14T08:16:38;9.00;68.50
10057;DHT22;5068;51.286;7.518;2023-03-14T08:18:11;9.10;68.60
10057;DHT22;5068;51.286;7.518;2023-03-14T08:19:44;9.00;68.40
10057;DHT22;5068;51.286;7.518;2023-03-14T08:21:18;9.00;68.40
10057;DHT22;5068;51.286;7.518;2023-03-14T08:22:51;9.10;68.50
10057;DHT22;5068;51.286;7.518;2023-03-14T08:24:25;9.10;68.50
10057;DHT22;5068;51.286;7.518;2023-03-14T08:25:58;9.10;68.50
10057;DHT22;5068;51.286;7.518;2023-03-14T08:27:31;9.10;68.40
10057;DHT22;5068;51.286;7.518;2023-03-14T08:29:04;9.10;68.40
10057;DHT22;5068;51.286;7.518;2023-03-14T08:30:38;9.10;68.40
10057;DHT22;5068;51.286;7.518;2023-03-14T08:32:16;9.10;68.40
10057;DHT22;5068;51.286;7.518;2023-03-14T08:33:49;9.10;68.40
10057;DHT22;5068;51.286;7.518;2023-03-14T08:35:24;9.10;68.40
10057;DHT22;5068;51.286;7.518;2023-03-14T08:36:58;9.10;68.60
10057;DHT22;5068;51.286;7.518;2023-03-14T08:38:31;9.10;68.60
10057;DHT22;5068;51.286;7.518;2023-03-14T08:40:06;9.10;68.70
10057;DHT22;5068;51.286;7.518;2023-03-14T08:41:41;9.10;68.90
10057;DHT22;5068;51.286;7.518;2023-03-14T08:43:16;9.10;68.80
10057;DHT22;5068;51.286;7.518;2023-03-14T08:44:50;9.20;68.90
10057;DHT22;5068;51.286;7.518;2023-03-14T08:46:24;9.20;68.90
10057;DHT22;5068;51.286;7.518;2023-03-14T08:47:58;9.30;69.00
10057;DHT22;5068;51.286;7.518;2023-03-14T08:49:32;9.20;68.80
10057;DHT22;5068;51.286;7.518;2023-03-14T08:51:06;9.20;68.90
10057;DHT22;5068;51.286;7.518;2023-03-14T08:52:40;9.20;68.70
10057;DHT22;5068;51.286;7.518;2023-03-14T08:54:13;9.20;68.70
10057;DHT22;5068;51.286;7.518;2023-03-14T08:55:47;9.20;68.90
10057;DHT22;5068;51.286;7.518;2023-03-14T08:57:20;9.20;68.80
10057;DHT22;5068;51.286;7.518;2023-03-14T08:58:59;9.20;68.90
10057;DHT22;5068;51.286;7.518;2023-03-14T09:00:32;9.20;68.80
10057;DHT22;5068;51.286;7.518;2023-03-14T09:02:05;9.30;68.80
10057;DHT22;5068;51.286;7.518;2023-03-14T09:03:40;9.30;69.00
10057;DHT22;5068;51.286;7.518;2023-03-14T09:05:13;9.30;69.00
10057;DHT22;5068;51.286;7.518;2023-03-14T09:06:46;9.30;69.10
10057;DHT22;5068;51.286;7.518;2023-03-14T09:08:20;9.30;69.00
10057;DHT22;5068;51.286;7.518;2023-03-14T09:09:53;9.30;69.00
10057;DHT22;5068;51.286;7.518;2023-03-14T09:11:26;9.30;69.10
10057;DHT22;5068;51.286;7.518;2023-03-14T09:12:59;9.30;69.10
10057;DHT22;5068;51.286;7.518;2023-03-14T09:14:32;9.40;69.30
10057;DHT22;5068;51.286;7.518;2023-03-14T09:16:07;9.40;69.40
10057;DHT22;5068;51.286;7.518;2023-03-14T09:17:42;9.40;69.40
10057;DHT22;5068;51.286;7.518;2023-03-14T09:19:17;9.40;69.50
10057;DHT22;5068;51.286;7.518;2023-03-14T09:20:50;9.40;69.40
10057;DHT22;5068;51.286;7.518;2023-03-14T09:22:24;9.40;69.50
10057;DHT22;5068;51.286;7.518;2023-03-14T09:23:57;9.50;69.60
10057;DHT22;5068;51.286;7.518;2023-03-14T09:25:30;9.50;69.60
10057;DHT22;5068;51.286;7.518;2023-03-14T09:27:04;9.50;69.50
10057;DHT22;5068;51.286;7.518;2023-03-14T09:28:37;9.50;69.30
10057;DHT22;5068;51.286;7.518;2023-03-14T09:30:11;9.50;69.30
10057;DHT22;5068;51.286;7.518;2023-03-14T09:31:44;9.50;69.30
10057;DHT22;5068;51.286;7.518;2023-03-14T09:33:18;9.50;69.30
10057;DHT22;5068;51.286;7.518;2023-03-14T09:34:53;9.60;69.40
10057;DHT22;5068;51.286;7.518;2023-03-14T09:36:26;9.60;69.50
10057;DHT22;5068;51.286;7.518;2023-03-14T09:37:59;9.60;69.50
10057;DHT22;5068;51.286;7.518;2023-03-14T09:39:32;9.70;69.60
10057;DHT22;5068;51.286;7.518;2023-03-14T09:41:14;9.60;69.50
10057;DHT22;5068;51.286;7.518;2023-03-14T09:42:51;9.60;69.70
10057;DHT22;5068;51.286;7.518;2023-03-14T09:44:29;9.70;69.70
10057;DHT22;5068;51.286;7.518;2023-03-14T09:46:05;9.70;69.50
10057;DHT22;5068;51.286;7.518;2023-03-14T09:47:40;9.70;69.40
10057;DHT22;5068;51.286;7.518;2023-03-14T09:49:32;9.70;69.10
10057;DHT22;5068;51.286;7.518;2023-03-14T09:51:13;9.70;68.80
10057;DHT22;5068;51.286;7.518;2023-03-14T09:52:51;9.70;68.90
10057;DHT22;5068;51.286;7.518;2023-03-14T09:54:35;9.70;68.60
10057;DHT22;5068;51.286;7.518;2023-03-14T09:56:13;9.70;68.40
10057;DHT22;5068;51.286;7.518;2023-03-14T09:57:53;9.70;68.20
10057;DHT22;5068;51.286;7.518;2023-03-14T09:59:29;9.70;68.00
10057;DHT22;5068;51.286;7.518;2023-03-14T10:01:03;9.70;67.80
10057;DHT22;5068;51.286;7.518;2023-03-14T10:02:36;9.70;67.70
10057;DHT22;5068;51.286;7.518;2023-03-14T10:04:14;9.70;67.60
10057;DHT22;5068;51.286;7.518;2023-03-14T10:05:49;9.70;67.30
10057;DHT22;5068;51.286;7.518;2023-03-14T10:07:28;9.70;67.10
10057;DHT22;5068;51.286;7.518;2023-03-14T10:09:02;9.70;67.00
10057;DHT22;5068;51.286;7.518;2023-03-14T10:10:37;9.70;67.10
10057;DHT22;5068;51.286;7.518;2023-03-14T10:12:11;9.70;67.20
10057;DHT22;5068;51.286;7.518;2023-03-14T10:13:50;9.70;67.10
10057;DHT22;5068;51.286;7.518;2023-03-14T10:15:37;9.70;66.90
10057;DHT22;5068;51.286;7.518;2023-03-14T10:17:13;9.70;66.50
10057;DHT22;5068;51.286;7.518;2023-03-14T10:18:47;9.60;66.00
10057;DHT22;5068;51.286;7.518;2023-03-14T10:20:30;9.60;65.60
10057;DHT22;5068;51.286;7.518;2023-03-14T10:22:14;9.60;64.90
10057;DHT22;5068;51.286;7.518;2023-03-14T10:23:49;9.60;64.70
10057;DHT22;5068;51.286;7.518;2023-03-14T10:25:27;9.60;64.50
10057;DHT22;5068;51.286;7.518;2023-03-14T10:27:05;9.50;63.90
10057;DHT22;5068;51.286;7.518;2023-03-14T10:28:44;9.50;64.10
10057;DHT22;5068;51.286;7.518;2023-03-14T10:30:29;9.50;64.00
10057;DHT22;5068;51.286;7.518;2023-03-14T10:32:19;9.50;63.80